Goerkes Corner, WI

10:55 AM CST on December 06, 2016 (GMT -0600)
Singing Hills Subdivision | | Change Station

Elev 930 ft 43.03 °N, 88.19 °W | Updated 55 seconds ago

Rain
Rain
36.9 °F
Feels Like 37 °F
N
2.0
Wind Variable Wind from SE
Gusts 5.0 mph

Today
High -- | Low -- °F
--% Chance of Precip.
Yesterday
High -- | Low -- °F
Precip. -- in
Pressure 29.74 in
Visibility 4.0 miles
Clouds Mostly Cloudy 1600 ft
Windchill 37 °F
Dew Point 36 °F
Humidity 97%
Rainfall 0.05 in
Snow Depth Not available.
7:10 AM 4:17 PM
Waxing Crescent, 43% visible
METAR KUES 061645Z 17004KT 4SM BR BKN016 01/00 A2974
Pressure 29.74 in
Visibility 4.0 miles
Clouds Mostly Cloudy 1600 ft
Windchill 37 °F
Dew Point 36 °F
Humidity 97%
Rainfall 0.05 in
Snow Depth Not available.
7:10 AM 4:17 PM
Waxing Crescent, 43% visible
METAR KUES 061645Z 17004KT 4SM BR BKN016 01/00 A2974

10-Day Weather Forecast

Almanac

Astronomy

Dec. 06, 2016 Rise Set
Actual Time
Civil Twilight
Nautical Twilight
Astronomical Twilight
Moon
Length of Visible Light
Length of Day
Tomorrow will be .
, % of the Moon is Illuminated

Today's Extremes

State Highs State Lows

Community

WunderPhotos

Upload Photos

1,955,983 photos uploaded!

WunderBlog® & News

Nearby

Air Quality

  Air Quality AQ Index Pollutant
Not available.

Snow Depth

Station Depth Elevation

Earthquake Activity

City Distance Mag. Time & Date
Minimum magnitude displayed is 2.5.

Coastal Water Temperatures

Place Temperature

Stations

Nearby Weather Stations

Station Location Temp. Windchill Dew Point Humidity Wind Precip. Elev Updated Type
                   

Watches & Warnings

There are currently no watches in effect.